Time;durP1;ratioP1;P1;durP2;ratioP2;P2;SDS_P1;SDS_P2;PMS_P1;PMS_P2;Temp;Humidity;BMP_temperature;BMP_pressure;BME280_temperature;BME280_humidity;BME280_pressure;Samples;Min_cycle;Max_cycle;Signal;HPM_P1;HPM_P2
2023/03/13 00:00:38;;;;;;;28.98;15.80;;;;;;;5.03;99.23;99659.06;10414454;28;20099;-78
2023/03/13 00:05:39;;;;;;;26.45;15.05;;;;;;;5.21;99.39;99674.06;10412689;28;20049;-77
2023/03/13 00:10:40;;;;;;;26.23;13.50;;;;;;;5.15;99.48;99687.84;10413674;28;20049;-77
2023/03/13 00:15:41;;;;;;;23.67;15.07;;;;;;;5.21;99.68;99698.59;10413775;28;20135;-77
2023/03/13 00:20:41;;;;;;;23.05;15.77;;;;;;;5.20;100.00;99706.63;10413070;28;20128;-77
2023/03/13 00:25:42;;;;;;;18.50;14.20;;;;;;;5.03;100.00;99671.41;10413299;28;20041;-77
2023/03/13 00:30:43;;;;;;;23.10;15.25;;;;;;;5.12;99.74;99690.75;10413162;28;20055;-77
2023/03/13 00:35:43;;;;;;;25.52;17.05;;;;;;;5.08;100.00;99670.97;10413025;28;20049;-77
2023/03/13 00:40:44;;;;;;;24.75;16.20;;;;;;;5.37;100.00;99695.28;10414000;28;20045;-77
2023/03/13 00:45:45;;;;;;;25.33;15.38;;;;;;;5.22;100.00;99641.47;10413889;28;20563;-77
2023/03/13 00:50:45;;;;;;;25.48;16.13;;;;;;;5.42;99.84;99663.22;10413277;28;20041;-77
2023/03/13 00:55:55;;;;;;;20.00;14.15;;;;;;;5.09;100.00;99633.16;10413739;28;20552;-77
2023/03/13 01:00:56;;;;;;;22.23;15.57;;;;;;;5.38;99.17;99704.81;10412970;28;20124;-77
2023/03/13 01:05:58;;;;;;;26.83;14.98;;;;;;;5.42;99.54;99723.81;10413027;28;20132;-77
2023/03/13 01:11:01;;;;;;;26.55;17.05;;;;;;;5.03;99.88;99672.25;10412573;28;20068;-77
2023/03/13 01:16:13;;;;;;;29.80;18.58;;;;;;;5.07;100.00;99716.69;10412791;28;20076;-77
2023/03/13 01:21:18;;;;;;;26.27;16.40;;;;;;;5.09;99.83;99741.09;10410862;28;20128;-77
2023/03/13 01:26:19;;;;;;;32.00;18.23;;;;;;;4.97;99.26;99754.44;10420318;28;20041;-77
2023/03/13 01:31:23;;;;;;;32.83;19.70;;;;;;;4.60;100.00;99693.13;10420710;28;20497;-77
2023/03/13 01:36:24;;;;;;;26.42;15.32;;;;;;;5.18;100.00;99806.84;10420571;28;20045;-77
2023/03/13 01:41:28;;;;;;;28.38;17.85;;;;;;;4.91;100.00;99777.88;10420731;28;20072;-77
2023/03/13 01:46:29;;;;;;;23.88;15.93;;;;;;;4.74;100.00;99758.41;10420464;28;20107;-77
2023/03/13 01:51:42;;;;;;;26.45;15.88;;;;;;;5.05;100.00;99811.59;10431041;28;20630;-77
2023/03/13 01:57:00;;;;;;;27.95;17.63;;;;;;;4.89;100.00;99804.34;10420341;28;20049;-77
2023/03/13 02:02:03;;;;;;;26.83;16.80;;;;;;;4.46;99.88;99732.06;10432495;28;20045;-77
2023/03/13 02:07:15;;;;;;;27.13;16.58;;;;;;;4.87;100.00;99822.06;10432028;28;20052;-77
2023/03/13 02:12:20;;;;;;;29.75;15.98;;;;;;;4.87;100.00;99826.50;10418160;28;20092;-77
2023/03/13 02:17:22;;;;;;;24.20;15.65;;;;;;;5.10;100.00;99866.47;10419730;28;20034;-77
2023/03/13 02:22:45;;;;;;;21.48;15.63;;;;;;;5.26;100.00;99879.84;10418601;28;20050;-77
2023/03/13 02:27:47;;;;;;;23.17;14.33;;;;;;;5.25;100.00;99872.91;10421770;28;20115;-77
2023/03/13 02:32:48;;;;;;;21.60;14.23;;;;;;;5.06;100.00;99859.84;10460009;28;20079;-76
2023/03/13 02:38:05;;;;;;;28.13;16.40;;;;;;;5.26;100.00;99888.59;10457856;28;20045;-76
2023/03/13 02:43:22;;;;;;;25.50;16.25;;;;;;;5.65;100.00;99934.97;10451956;28;20053;-75
2023/03/13 02:48:32;;;;;;;31.77;17.98;;;;;;;5.22;100.00;99854.78;10445263;28;20050;-78
2023/03/13 02:53:34;;;;;;;35.53;18.45;;;;;;;5.56;99.99;99912.97;10416447;28;20050;-77
2023/03/13 02:58:38;;;;;;;32.08;17.70;;;;;;;5.14;99.75;99849.41;10416817;28;20069;-77
2023/03/13 03:03:39;;;;;;;37.25;16.58;;;;;;;5.79;99.70;99950.31;10410952;28;20068;-77
2023/03/13 03:08:42;;;;;;;31.38;16.10;;;;;;;5.59;100.00;99930.28;10410333;28;20598;-78
2023/03/13 03:13:43;;;;;;;24.70;15.85;;;;;;;5.98;100.00;99972.28;10415984;28;20041;-78
2023/03/13 03:18:44;;;;;;;27.35;15.32;;;;;;;6.01;100.00;99974.63;10415857;28;20067;-77
2023/03/13 03:23:45;;;;;;;22.92;14.55;;;;;;;5.98;100.00;99972.28;10416926;28;20079;-77
2023/03/13 03:28:46;;;;;;;26.80;14.38;;;;;;;6.04;100.00;99966.44;10416160;28;20128;-77
2023/03/13 03:33:47;;;;;;;20.00;14.68;;;;;;;6.29;100.00;99999.19;10415900;28;20049;-77
2023/03/13 03:38:48;;;;;;;22.02;13.65;;;;;;;6.02;100.00;99944.69;10415838;28;20046;-77
2023/03/13 03:43:49;;;;;;;20.17;12.93;;;;;;;6.52;100.00;100012.75;10415562;28;20099;-77
2023/03/13 03:48:50;;;;;;;17.95;12.25;;;;;;;6.29;100.00;99970.19;10415406;28;20052;-77
2023/03/13 03:53:51;;;;;;;21.75;13.05;;;;;;;6.73;100.00;100041.50;10414044;28;20041;-77
2023/03/13 03:58:51;;;;;;;20.88;13.07;;;;;;;6.00;100.00;99912.34;10415603;28;20045;-77
2023/03/13 04:03:52;;;;;;;21.30;13.65;;;;;;;6.73;100.00;100023.88;10415351;28;20048;-77
2023/03/13 04:08:54;;;;;;;23.83;14.20;;;;;;;6.10;100.00;99932.41;10415149;28;20099;-77
2023/03/13 04:13:55;;;;;;;17.58;11.55;;;;;;;6.91;100.00;100054.72;10412272;28;20037;-78
2023/03/13 04:18:56;;;;;;;19.13;12.20;;;;;;;6.82;100.00;100020.34;10414422;28;20072;-79
2023/03/13 04:23:56;;;;;;;18.20;12.02;;;;;;;5.81;100.00;99845.56;10405049;28;20149;-74
2023/03/13 04:28:57;;;;;;;14.32;10.57;;;;;;;7.30;100.00;100068.44;10413753;28;20042;-77
2023/03/13 04:33:58;;;;;;;15.82;11.40;;;;;;;7.71;100.00;100125.03;10413678;28;20482;-76
2023/03/13 04:38:59;;;;;;;22.17;11.25;;;;;;;7.75;100.00;100126.41;10416622;28;20413;-84
2023/03/13 04:43:59;;;;;;;16.73;10.00;;;;;;;7.48;100.00;100060.47;10413939;28;20144;-77
2023/03/13 04:49:00;;;;;;;19.10;11.60;;;;;;;8.16;100.00;100176.91;10412644;28;20079;-77
2023/03/13 04:54:02;;;;;;;15.90;10.43;;;;;;;7.85;100.00;100114.91;10411368;28;20038;-78
2023/03/13 04:59:03;;;;;;;22.13;10.73;;;;;;;8.24;100.00;100182.25;10412763;28;20044;-78
2023/03/13 05:04:04;;;;;;;20.02;11.60;;;;;;;7.38;100.00;100034.13;10413481;28;20052;-77
2023/03/13 05:09:05;;;;;;;21.77;10.75;;;;;;;8.11;100.00;100144.81;10412628;28;20101;-79
2023/03/13 05:14:08;;;;;;;10.13;7.55;;;;;;;8.27;100.00;100154.66;10412705;28;20464;-78
2023/03/13 05:19:08;;;;;;;13.15;7.68;;;;;;;8.87;100.00;100222.63;10412174;28;20124;-77
2023/03/13 05:24:09;;;;;;;8.82;7.40;;;;;;;9.00;100.00;100238.06;10412086;28;20147;-78
2023/03/13 05:29:10;;;;;;;10.23;8.30;;;;;;;9.18;100.00;100297.09;10412717;28;20444;-77
2023/03/13 05:34:11;;;;;;;11.00;8.77;;;;;;;8.93;100.00;100293.50;10412424;28;20041;-77
2023/03/13 05:39:11;;;;;;;12.70;9.38;;;;;;;8.49;100.00;100253.88;10411831;28;20133;-78
2023/03/13 05:44:12;;;;;;;10.32;7.60;;;;;;;8.77;100.00;100322.59;10412605;28;20061;-77
2023/03/13 05:49:13;;;;;;;21.40;13.20;;;;;;;8.30;100.00;100267.31;10411559;28;20056;-78
2023/03/13 05:54:13;;;;;;;17.13;10.55;;;;;;;8.50;100.00;100297.09;10412495;28;20044;-78
2023/03/13 05:59:15;;;;;;;15.48;8.73;;;;;;;8.62;100.00;100341.69;10411418;28;20452;-77
2023/03/13 06:04:15;;;;;;;11.07;8.20;;;;;;;8.42;100.00;100314.56;10411303;28;20128;-80
2023/03/13 06:09:16;;;;;;;10.60;7.45;;;;;;;8.76;100.00;100389.75;10412360;28;20133;-77
2023/03/13 06:14:17;;;;;;;11.15;6.70;;;;;;;7.48;100.00;100193.44;10418774;28;20038;-79
2023/03/13 06:19:18;;;;;;;6.80;5.00;;;;;;;8.20;100.00;100312.41;10418303;28;20489;-78
2023/03/13 06:24:19;;;;;;;5.85;3.75;;;;;;;8.71;100.00;100416.72;10418674;28;20143;-78
2023/03/13 06:29:19;;;;;;;9.38;4.00;;;;;;;8.50;100.00;100400.34;10417956;28;20191;-78
2023/03/13 06:34:20;;;;;;;5.70;4.78;;;;;;;8.42;100.00;100424.94;10417760;28;20041;-78
2023/03/13 06:39:21;;;;;;;7.05;4.55;;;;;;;8.56;100.00;100473.88;10416676;28;20034;-78
2023/03/13 06:44:22;;;;;;;6.05;4.30;;;;;;;8.35;100.00;100461.72;10417944;28;20057;-78
2023/03/13 06:49:22;;;;;;;7.60;4.88;;;;;;;7.77;100.00;100394.16;10417875;28;20128;-78
2023/03/13 06:54:23;;;;;;;9.00;5.50;;;;;;;8.00;100.00;100468.63;10417627;28;20041;-76
2023/03/13 06:59:24;;;;;;;8.13;5.22;;;;;;;7.63;100.00;100438.75;10418088;28;20041;-75
2023/03/13 07:04:25;;;;;;;8.50;5.25;;;;;;;7.90;100.00;100504.91;10416478;28;20052;-75
2023/03/13 07:09:26;;;;;;;7.07;5.72;;;;;;;7.87;100.00;100536.94;10416993;28;20120;-74
2023/03/13 07:14:26;;;;;;;8.93;7.63;;;;;;;7.11;100.00;100435.78;10416068;28;20061;-74
2023/03/13 07:19:27;;;;;;;15.10;12.25;;;;;;;6.79;100.00;100419.31;10416446;28;20041;-75
2023/03/13 07:24:28;;;;;;;18.50;14.70;;;;;;;7.26;100.00;100526.81;10415495;28;20091;-74
2023/03/13 07:29:29;;;;;;;19.83;14.88;;;;;;;6.67;100.00;100445.97;10415557;28;20045;-74
2023/03/13 07:34:29;;;;;;;17.08;15.27;;;;;;;7.10;100.00;100532.69;10415352;28;20034;-75
2023/03/13 07:39:30;;;;;;;19.77;17.60;;;;;;;7.34;100.00;100569.22;10416064;28;20554;-75
2023/03/13 07:44:31;;;;;;;20.52;16.90;;;;;;;7.13;100.00;100529.75;10415711;28;20425;-75
2023/03/13 07:49:32;;;;;;;21.33;18.90;;;;;;;7.30;100.00;100594.28;10415385;28;20064;-75
2023/03/13 07:54:33;;;;;;;22.30;19.30;;;;;;;6.78;100.00;100520.59;10415065;28;20491;-75
2023/03/13 07:59:33;;;;;;;27.65;21.40;;;;;;;7.34;100.00;100605.41;10414710;28;20037;-75
2023/03/13 08:04:34;;;;;;;25.35;21.70;;;;;;;7.39;100.00;100621.66;10414244;28;20459;-75
2023/03/13 08:09:35;;;;;;;31.02;23.55;;;;;;;7.12;100.00;100577.44;10414696;28;20037;-75
2023/03/13 08:14:36;;;;;;;29.10;24.58;;;;;;;7.27;100.00;100608.59;10414422;28;20048;-76
2023/03/13 08:19:37;;;;;;;30.75;25.80;;;;;;;7.51;100.00;100620.53;10414358;28;20073;-76
2023/03/13 08:24:38;;;;;;;34.63;26.27;;;;;;;7.34;100.00;100608.88;10414351;28;20124;-74
2023/03/13 08:29:38;;;;;;;26.45;20.63;;;;;;;7.44;100.00;100641.41;10413953;28;20071;-75
2023/03/13 08:34:39;;;;;;;19.40;15.68;;;;;;;7.28;100.00;100612.91;10412455;28;20045;-75
2023/03/13 08:39:40;;;;;;;20.77;13.63;;;;;;;6.97;100.00;100584.94;10413640;28;20045;-75
2023/03/13 08:44:41;;;;;;;15.43;12.43;;;;;;;6.52;100.00;100512.41;10413374;28;20067;-74
2023/03/13 08:49:41;;;;;;;13.68;11.68;;;;;;;7.28;100.00;100651.72;10413385;28;20045;-75
2023/03/13 08:54:42;;;;;;;13.10;11.05;;;;;;;7.22;100.00;100636.41;10413346;28;20044;-75
2023/03/13 08:59:43;;;;;;;11.38;9.77;;;;;;;7.23;100.00;100643.34;10413734;28;20537;-75
2023/03/13 09:04:44;;;;;;;13.32;11.93;;;;;;;7.27;100.00;100639.47;10412805;28;20053;-75
2023/03/13 09:09:45;;;;;;;12.45;9.65;;;;;;;7.23;100.00;100643.34;10412936;28;20418;-75
2023/03/13 09:14:47;;;;;;;10.02;7.90;;;;;;;7.02;100.00;100636.38;10412298;28;20038;-74
2023/03/13 09:19:47;;;;;;;11.27;8.90;;;;;;;6.38;100.00;100532.09;10412730;28;20045;-75
2023/03/13 09:24:48;;;;;;;8.93;7.53;;;;;;;7.08;100.00;100662.25;10413170;28;20057;-75
2023/03/13 09:29:49;;;;;;;8.30;6.57;;;;;;;6.70;100.00;100598.81;10413176;28;20102;-74
2023/03/13 09:34:49;;;;;;;9.43;5.85;;;;;;;6.45;100.00;100531.56;10412540;28;20037;-75
2023/03/13 09:39:50;;;;;;;8.27;6.55;;;;;;;7.04;100.00;100655.59;10412430;28;20046;-76
2023/03/13 09:45:16;;;;;;;9.32;7.00;;;;;;;6.59;100.00;100578.69;10416133;28;20068;-76
2023/03/13 09:50:24;;;;;;;7.88;5.97;;;;;;;6.91;100.00;100651.53;10420130;28;20037;-76
2023/03/13 09:55:32;;;;;;;6.72;5.80;;;;;;;6.98;100.00;100661.41;10419896;28;20428;-76
2023/03/13 10:00:38;;;;;;;8.40;6.05;;;;;;;6.93;100.00;100662.78;10420618;28;20469;-76
2023/03/13 10:05:48;;;;;;;7.93;6.25;;;;;;;6.59;100.00;100605.06;10419443;28;20397;-75
2023/03/13 10:11:10;;;;;;;7.68;6.32;;;;;;;6.65;100.00;100649.41;10418114;28;20040;-76
2023/03/13 10:16:19;;;;;;;8.80;6.43;;;;;;;6.71;100.00;100667.34;10419425;28;20045;-76
2023/03/13 10:21:23;;;;;;;6.63;5.78;;;;;;;6.67;100.00;100681.78;10419451;28;20547;-76
2023/03/13 10:26:29;;;;;;;7.45;5.22;;;;;;;6.55;100.00;100648.53;10418580;28;20497;-76
2023/03/13 10:31:32;;;;;;;5.80;5.00;;;;;;;6.55;100.00;100672.28;10418640;28;20397;-77
2023/03/13 10:36:42;;;;;;;6.03;5.25;;;;;;;6.65;100.00;100680.25;10418290;28;20041;-77
2023/03/13 10:41:43;;;;;;;6.93;5.75;;;;;;;6.65;100.00;100667.88;10418609;28;20041;-76
2023/03/13 10:46:47;;;;;;;9.75;6.65;;;;;;;6.74;99.68;100690.84;10418508;28;20152;-76
2023/03/13 10:51:55;;;;;;;10.70;7.32;;;;;;;6.55;99.85;100675.78;10417747;28;20497;-76
2023/03/13 10:57:19;;;;;;;7.10;5.30;;;;;;;6.53;99.57;100687.44;10416206;28;20037;-75
2023/03/13 11:02:22;;;;;;;;;;;;;;;6.61;99.31;100700.78;10413716;28;20060;-75
2023/03/13 11:07:33;;;;;;;4.80;3.72;;;;;;;6.35;99.70;100697.78;10416555;28;19944;-75
2023/03/13 11:12:34;;;;;;;4.18;3.40;;;;;;;6.45;100.00;100716.28;10416394;28;20205;-75
2023/03/13 11:17:40;;;;;;;4.63;3.47;;;;;;;6.48;100.00;100718.66;10416878;28;20045;-75
2023/03/13 11:22:53;;;;;;;5.18;3.70;;;;;;;6.56;100.00;100738.16;10416288;28;20520;-74
2023/03/13 11:28:16;;;;;;;5.00;3.85;;;;;;;6.35;100.00;100695.13;10416565;28;20056;-74
2023/03/13 11:33:24;;;;;;;4.97;3.70;;;;;;;6.48;100.00;100739.78;10416272;28;20041;-75
2023/03/13 11:38:36;;;;;;;6.78;5.15;;;;;;;6.14;100.00;100755.84;10415706;28;20501;-75
2023/03/13 11:44:11;;;;;;;7.88;5.82;;;;;;;5.86;99.11;100734.41;10416058;28;20057;-75
2023/03/13 11:49:23;;;;;;;6.25;5.05;;;;;;;5.97;98.01;100753.78;10415558;28;20041;-76
2023/03/13 11:54:52;;;;;;;6.55;4.43;;;;;;;6.02;96.41;100768.25;10415369;28;20045;-75
2023/03/13 12:00:18;;;;;;;6.35;4.63;;;;;;;5.99;97.43;100762.41;10415156;28;20544;-75
2023/03/13 12:05:20;;;;;;;5.82;4.38;;;;;;;5.93;97.43;100754.03;10430521;28;20049;-74
2023/03/13 12:10:30;;;;;;;5.55;4.07;;;;;;;5.55;96.75;100683.38;10414815;28;20083;-75
2023/03/13 12:15:45;;;;;;;5.30;3.83;;;;;;;6.09;96.57;100794.94;10413363;28;20444;-74
2023/03/13 12:20:55;;;;;;;6.78;5.00;;;;;;;5.80;96.77;100761.25;10418093;28;20045;-75
2023/03/13 12:26:16;;;;;;;6.22;4.78;;;;;;;5.95;98.05;100806.63;10453948;28;20186;-75
2023/03/13 12:31:20;;;;;;;5.70;4.45;;;;;;;5.70;96.90;100778.78;10454724;28;20090;-74
2023/03/13 12:36:34;;;;;;;5.00;3.80;;;;;;;5.35;95.34;100737.69;10450929;28;20048;-75
2023/03/13 12:41:42;;;;;;;5.05;3.20;;;;;;;4.83;96.04;100667.34;10429620;28;20382;-76
2023/03/13 12:46:47;;;;;;;5.55;3.10;;;;;;;5.71;95.68;100818.22;10434891;28;20493;-75
2023/03/13 12:52:13;;;;;;;4.20;3.00;;;;;;;4.72;95.70;100668.19;10438224;28;20102;-75
2023/03/13 12:57:52;;;;;;;4.45;2.92;;;;;;;5.58;96.32;100827.22;10432100;28;20048;-77
2023/03/13 13:03:11;;;;;;;5.88;3.95;;;;;;;5.44;96.56;100821.28;10454406;28;20528;-75
2023/03/13 13:08:24;;;;;;;9.93;5.20;;;;;;;4.98;97.15;100751.19;10454139;28;20136;-74
2023/03/13 13:13:32;;;;;;;5.43;4.10;;;;;;;5.09;97.59;100786.38;10454523;28;20078;-75
2023/03/13 13:18:34;;;;;;;5.15;3.40;;;;;;;4.95;97.53;100795.38;10455917;28;20055;-76
2023/03/13 13:23:37;;;;;;;5.82;3.63;;;;;;;5.06;98.16;100832.22;10462585;28;20041;-75
2023/03/13 13:28:38;;;;;;;4.40;2.33;;;;;;;4.75;97.58;100797.75;10460165;28;20433;-76
2023/03/13 13:33:39;;;;;;;3.83;2.50;;;;;;;5.00;97.32;100843.25;10433818;28;20283;-75
2023/03/13 13:38:41;;;;;;;4.32;2.60;;;;;;;4.58;97.56;100775.38;10429177;28;20041;-76
2023/03/13 13:43:44;;;;;;;7.40;3.10;;;;;;;4.96;97.54;100818.09;10440615;28;20506;-76
2023/03/13 13:48:45;;;;;;;9.63;5.60;;;;;;;4.99;97.05;100836.28;10419749;28;20045;-76
2023/03/13 13:53:49;;;;;;;5.20;3.47;;;;;;;5.01;96.40;100840.47;10431476;28;20064;-75
2023/03/13 13:58:54;;;;;;;4.78;2.90;;;;;;;4.84;96.64;100816.41;10431284;28;20049;-76
2023/03/13 14:04:11;;;;;;;3.30;2.42;;;;;;;5.13;95.02;100872.91;10419588;28;20041;-74
2023/03/13 14:09:30;;;;;;;4.93;2.70;;;;;;;5.16;95.63;100882.38;10420596;28;20055;-74
2023/03/13 14:14:30;;;;;;;9.43;5.43;;;;;;;4.49;95.38;100770.84;10458750;28;20139;-73
2023/03/13 14:19:41;;;;;;;7.35;4.55;;;;;;;5.12;95.60;100867.78;10462127;28;20565;-73
2023/03/13 14:24:56;;;;;;;3.85;2.85;;;;;;;5.28;93.29;100885.84;10436083;28;20065;-76
2023/03/13 14:30:02;;;;;;;4.53;2.53;;;;;;;5.06;93.42;100842.75;10437361;28;20084;-75
2023/03/13 14:35:09;;;;;;;6.80;2.47;;;;;;;5.06;92.52;100863.00;10459753;28;20123;-75
2023/03/13 14:40:20;;;;;;;3.67;1.65;;;;;;;5.12;92.51;100878.31;10437716;28;20045;-75
2023/03/13 14:45:23;;;;;;;3.13;1.90;;;;;;;5.03;92.12;100888.59;10458581;28;20060;-75
2023/03/13 14:50:24;;;;;;;2.45;1.48;;;;;;;4.83;91.75;100860.34;10459274;28;20056;-75
2023/03/13 14:55:29;;;;;;;3.17;1.60;;;;;;;5.11;91.25;100914.31;10418027;28;20049;-74
2023/03/13 15:00:38;;;;;;;4.13;2.00;;;;;;;4.63;89.83;100843.44;10416968;28;20043;-74
2023/03/13 15:05:39;;;;;;;4.03;1.35;;;;;;;5.04;91.00;100923.66;10436741;28;20061;-73
2023/03/13 15:10:41;;;;;;;3.17;1.42;;;;;;;5.02;90.02;100917.66;10458248;28;20098;-74
2023/03/13 15:15:41;;;;;;;4.05;2.03;;;;;;;4.87;90.28;100911.78;10456836;28;20044;-73
2023/03/13 15:20:42;;;;;;;3.20;1.75;;;;;;;4.94;89.56;100943.78;10457174;28;20037;-73
2023/03/13 15:25:43;;;;;;;2.42;1.38;;;;;;;4.72;89.69;100923.47;10457127;28;20526;-73
2023/03/13 15:30:48;;;;;;;2.70;1.73;;;;;;;4.90;89.08;100958.94;10457113;28;20079;-71
2023/03/13 15:35:49;;;;;;;3.90;1.83;;;;;;;4.99;89.19;100978.47;10457127;28;20472;-72
2023/03/13 15:40:51;;;;;;;6.85;1.75;;;;;;;4.85;89.43;100966.38;10454066;28;20124;-73
2023/03/13 15:45:52;;;;;;;4.13;2.25;;;;;;;4.78;89.57;100952.81;10451320;28;20071;-73
2023/03/13 15:50:57;;;;;;;3.58;2.03;;;;;;;4.95;89.21;100992.81;10456498;28;20053;-71
2023/03/13 15:56:00;;;;;;;3.40;2.00;;;;;;;4.98;89.54;101024.19;10448620;28;20033;-73
2023/03/13 16:01:00;;;;;;;4.35;2.22;;;;;;;4.47;89.92;100933.22;10419104;28;20050;-72
2023/03/13 16:06:01;;;;;;;3.72;2.08;;;;;;;4.98;89.97;101022.41;10414111;28;20532;-72
2023/03/13 16:11:03;;;;;;;3.08;1.83;;;;;;;4.70;89.31;100994.66;10415083;28;20456;-73
2023/03/13 16:16:32;;;;;;;3.70;2.08;;;;;;;4.96;88.96;101050.63;10414285;28;20493;-73
2023/03/13 16:21:33;;;;;;;3.00;1.77;;;;;;;4.78;89.71;101044.09;10412938;28;20085;-73
2023/03/13 16:26:34;;;;;;;2.85;1.58;;;;;;;4.80;89.45;101063.25;10413252;28;20527;-73
2023/03/13 16:31:35;;;;;;;4.28;1.75;;;;;;;4.76;89.49;101046.03;10424737;28;20041;-72
2023/03/13 16:36:36;;;;;;;5.50;1.90;;;;;;;4.42;89.75;101013.44;10413883;28;20584;-73
2023/03/13 16:41:37;;;;;;;5.30;1.88;;;;;;;4.53;89.43;101045.91;10414295;28;20436;-73
2023/03/13 16:46:40;;;;;;;3.35;1.98;;;;;;;4.68;89.18;101069.44;10414411;28;20079;-72
2023/03/13 16:51:40;;;;;;;3.40;2.00;;;;;;;4.70;89.98;101075.44;10413421;28;20045;-73
2023/03/13 16:56:42;;;;;;;4.53;1.90;;;;;;;4.70;89.98;101085.94;10411888;28;20045;-73
2023/03/13 17:01:45;;;;;;;2.70;1.70;;;;;;;4.66;89.77;101082.69;10430649;28;20045;-73
2023/03/13 17:06:46;;;;;;;3.03;1.70;;;;;;;4.41;89.88;101044.16;10413460;28;20045;-73
2023/03/13 17:11:47;;;;;;;2.83;1.80;;;;;;;4.43;90.10;101059.81;10413667;28;20038;-72
2023/03/13 17:16:48;;;;;;;4.25;1.90;;;;;;;3.85;90.21;100980.69;10412227;28;20094;-73
2023/03/13 17:21:48;;;;;;;3.67;1.90;;;;;;;4.50;90.44;101098.75;10412769;28;20053;-73
2023/03/13 17:26:49;;;;;;;3.20;1.75;;;;;;;4.06;89.88;101025.66;10412747;28;20041;-73
2023/03/13 17:31:50;;;;;;;5.35;2.17;;;;;;;4.54;90.04;101108.09;10413138;28;20047;-73
2023/03/13 17:36:51;;;;;;;2.90;1.67;;;;;;;4.45;90.48;101100.84;10412011;28;20044;-73
2023/03/13 17:41:52;;;;;;;3.30;1.80;;;;;;;4.53;90.35;101119.56;10412683;28;20052;-73
2023/03/13 17:46:53;;;;;;;2.92;1.95;;;;;;;4.41;90.76;101104.66;10411054;28;20072;-73
2023/03/13 17:51:53;;;;;;;2.80;1.70;;;;;;;3.60;90.24;100966.66;10411961;28;20136;-74
2023/03/13 17:56:55;;;;;;;3.65;2.10;;;;;;;4.45;90.30;101102.66;10422749;28;20137;-73
2023/03/13 18:01:56;;;;;;;4.18;2.00;;;;;;;4.41;90.69;101099.41;10411553;28;20035;-74
2023/03/13 18:06:56;;;;;;;3.15;1.85;;;;;;;4.42;90.99;101102.88;10416756;28;20128;-74
2023/03/13 18:11:57;;;;;;;3.33;1.83;;;;;;;4.51;91.12;101123.25;10418802;28;20034;-73
2023/03/13 18:16:58;;;;;;;3.15;2.00;;;;;;;4.27;90.56;101076.72;10418708;28;20124;-73
2023/03/13 18:21:58;;;;;;;4.05;2.08;;;;;;;4.25;90.93;101098.84;10418167;28;20034;-73
2023/03/13 18:26:59;;;;;;;3.92;2.22;;;;;;;4.27;91.43;101099.53;10418650;28;20053;-73
2023/03/13 18:32:00;;;;;;;4.72;2.50;;;;;;;4.45;91.03;101147.38;10418439;28;20041;-74
2023/03/13 18:37:04;;;;;;;3.40;2.28;;;;;;;4.42;91.52;101152.84;10417485;28;20080;-73
2023/03/13 18:42:06;;;;;;;3.85;2.40;;;;;;;4.25;91.52;101125.13;10417761;28;20068;-73
2023/03/13 18:47:19;;;;;;;3.72;2.60;;;;;;;4.38;91.82;101149.63;10418471;28;20091;-73
2023/03/13 18:52:20;;;;;;;3.80;2.40;;;;;;;3.80;91.42;101069.53;10417919;28;20136;-73
2023/03/13 18:57:21;;;;;;;3.55;2.25;;;;;;;4.20;91.99;101143.84;10417509;28;20140;-73
2023/03/13 19:02:22;;;;;;;3.13;2.03;;;;;;;4.28;92.09;101151.22;10417264;28;20038;-73
2023/03/13 19:07:25;;;;;;;3.28;2.13;;;;;;;4.07;91.99;101122.84;10417181;28;20052;-73
2023/03/13 19:12:26;;;;;;;3.93;2.30;;;;;;;4.25;91.89;101156.69;10415276;28;20121;-74
2023/03/13 19:17:28;;;;;;;3.38;2.10;;;;;;;4.11;92.54;101142.69;10429365;28;20127;-74
2023/03/13 19:22:28;;;;;;;3.78;2.40;;;;;;;3.30;92.58;101005.56;10425424;28;20560;-74
2023/03/13 19:27:30;;;;;;;3.80;2.35;;;;;;;4.10;92.42;101148.09;10415653;28;20163;-74
2023/03/13 19:32:31;;;;;;;4.85;2.35;;;;;;;4.36;92.93;101185.69;10416449;28;20132;-74
2023/03/13 19:37:31;;;;;;;4.53;2.78;;;;;;;3.78;93.16;101085.41;10416184;28;20116;-73
2023/03/13 19:42:34;;;;;;;3.78;2.45;;;;;;;4.32;93.16;101192.97;10416298;28;20084;-74
2023/03/13 19:47:35;;;;;;;3.60;2.47;;;;;;;4.31;93.52;101195.72;10415775;28;20049;-74
2023/03/13 19:52:35;;;;;;;3.83;2.30;;;;;;;4.29;93.16;101198.44;10426944;28;20543;-74
2023/03/13 19:57:36;;;;;;;3.60;2.65;;;;;;;4.30;93.38;101199.28;10415530;28;20071;-74
2023/03/13 20:02:37;;;;;;;5.15;2.78;;;;;;;4.40;93.29;101210.84;10415480;28;20409;-74
2023/03/13 20:07:38;;;;;;;3.95;2.53;;;;;;;4.06;93.65;101134.28;10414480;28;20640;-74
2023/03/13 20:12:39;;;;;;;4.82;2.70;;;;;;;4.28;93.44;101156.47;10414591;28;20136;-74
2023/03/13 20:17:39;;;;;;;4.00;2.60;;;;;;;3.76;94.18;101075.97;10414583;28;20041;-74
2023/03/13 20:22:40;;;;;;;4.72;3.03;;;;;;;4.40;94.24;101158.25;10413959;28;20045;-74
2023/03/13 20:27:41;;;;;;;4.68;3.38;;;;;;;4.63;93.61;101182.06;10413798;28;20132;-74
2023/03/13 20:32:42;;;;;;;3.80;2.65;;;;;;;4.61;93.81;101179.56;10413889;28;20037;-74
2023/03/13 20:37:43;;;;;;;3.97;2.72;;;;;;;4.75;94.09;101212.78;10445744;28;20041;-74
2023/03/13 20:42:43;;;;;;;4.80;3.40;;;;;;;4.55;94.01;101195.78;10424503;28;20071;-74
2023/03/13 20:47:44;;;;;;;4.03;3.03;;;;;;;4.64;94.91;101215.34;10413530;28;20045;-74
2023/03/13 20:52:45;;;;;;;4.82;3.40;;;;;;;4.34;94.78;101188.44;10412914;28;20044;-74
2023/03/13 20:57:46;;;;;;;4.70;3.28;;;;;;;4.66;94.68;101214.28;10412352;28;20037;-74
2023/03/13 21:02:48;;;;;;;5.70;2.92;;;;;;;4.58;94.73;101206.09;10412535;28;20039;-74
2023/03/13 21:07:48;;;;;;;3.70;2.75;;;;;;;4.58;94.16;101199.03;10412937;28;20042;-73
2023/03/13 21:12:49;;;;;;;4.88;3.10;;;;;;;4.75;95.03;101239.94;10412523;28;20087;-74
2023/03/13 21:17:51;;;;;;;5.13;2.80;;;;;;;4.70;94.79;101207.84;10412941;28;20559;-74
2023/03/13 21:22:51;;;;;;;4.57;2.92;;;;;;;4.65;94.64;101185.44;10412230;28;20497;-74
2023/03/13 21:27:52;;;;;;;3.75;2.83;;;;;;;4.83;94.89;101231.50;10413464;28;20041;-74
2023/03/13 21:32:53;;;;;;;5.78;3.17;;;;;;;4.60;94.42;101200.72;10412215;28;20493;-74
2023/03/13 21:37:54;;;;;;;7.22;3.03;;;;;;;4.75;94.44;101226.78;10411990;28;20124;-74
2023/03/13 21:42:55;;;;;;;4.35;3.20;;;;;;;4.71;94.82;101214.78;10419543;28;20493;-74
2023/03/13 21:47:55;;;;;;;4.45;3.05;;;;;;;4.76;94.95;101225.84;10419969;28;20044;-74
2023/03/13 21:52:56;;;;;;;4.35;3.13;;;;;;;4.65;94.68;101230.19;10452079;28;20060;-74
2023/03/13 21:57:57;;;;;;;4.82;3.30;;;;;;;4.65;95.37;101233.66;10419565;28;20533;-74
2023/03/13 22:02:58;;;;;;;5.32;3.30;;;;;;;4.17;95.34;101143.22;10419999;28;20519;-74
2023/03/13 22:07:59;;;;;;;4.53;3.25;;;;;;;4.67;95.42;101217.78;10418830;28;20048;-74
2023/03/13 22:13:00;;;;;;;10.10;4.70;;;;;;;4.82;95.30;101221.94;10419965;28;20076;-74
2023/03/13 22:18:00;;;;;;;5.03;3.90;;;;;;;4.90;94.83;101234.53;10419767;28;20048;-74
2023/03/13 22:23:01;;;;;;;4.93;2.90;;;;;;;4.88;94.49;101220.66;10418668;28;20041;-73
2023/03/13 22:28:02;;;;;;;4.53;3.20;;;;;;;4.71;94.17;101206.91;10417069;28;20124;-74
2023/03/13 22:33:05;;;;;;;5.63;3.03;;;;;;;4.43;94.38;101154.53;10418239;28;20045;-74
2023/03/13 22:38:06;;;;;;;4.63;3.17;;;;;;;4.74;94.81;101205.84;10418514;28;20041;-74
2023/03/13 22:43:07;;;;;;;7.35;4.13;;;;;;;4.80;95.26;101229.09;10417660;28;20061;-74
2023/03/13 22:48:08;;;;;;;8.55;4.13;;;;;;;4.79;94.98;101225.63;10417649;28;20054;-74
2023/03/13 22:53:09;;;;;;;5.20;3.63;;;;;;;4.90;95.01;101237.19;10416288;28;20037;-73
2023/03/13 22:58:09;;;;;;;4.18;2.85;;;;;;;4.31;95.02;101145.75;10418255;28;20128;-73
2023/03/13 23:03:10;;;;;;;4.57;2.80;;;;;;;4.73;94.60;101236.59;10417651;28;20042;-74
2023/03/13 23:08:11;;;;;;;4.40;3.13;;;;;;;4.27;94.28;101170.56;10417471;28;20251;-73
2023/03/13 23:13:12;;;;;;;4.70;3.17;;;;;;;4.82;94.79;101269.31;10428516;28;20409;-74